Fairmount City, Pennsylvania
Current Conditions -  °F | °C
As of 4:53 AM on Sunday 26 Oct 2014 (Local Time) from KDUJ Reporting Station
Clear Clear  
Wind Chill: 38°   Ceiling: Unl
Heat Index: 44°   Visibility: 10mi
Dew Point: 35°   Wind: 12mph
Humidity: 71%   Direction: 260°W
Pressure: 29.73"   Gusts: NA
Location:  41.01°N, 79.32°W
Report Text: KDUJ 260853Z AUTO 26010KT 10SM CLR 07/02 A2973 RMK AO2 SLP066 T00670017 51002 $
Loading
Personal Weather Stations






























Interactive Weather Map
Tropical Storm Tracking
New forecast layout! Learn more

10-Day Weather Forecast

Advertisements
Track Severe Weather on mobile